sensor_id;sensor_type;location;lat;lon;timestamp;P1;durP1;ratioP1;P2;durP2;ratioP2
62915;SDS011;49010;51.230;-2.306;2022-09-09T00:08:02;5.22;;;2.55;;
62915;SDS011;49010;51.230;-2.306;2022-09-09T00:11:52;9.20;;;3.80;;
62915;SDS011;49010;51.230;-2.306;2022-09-09T00:15:42;4.72;;;3.15;;
62915;SDS011;49010;51.230;-2.306;2022-09-09T00:19:41;8.25;;;3.75;;
62915;SDS011;49010;51.230;-2.306;2022-09-09T00:23:39;9.60;;;3.70;;
62915;SDS011;49010;51.230;-2.306;2022-09-09T00:27:37;7.15;;;3.50;;
62915;SDS011;49010;51.230;-2.306;2022-09-09T00:31:26;6.95;;;4.07;;
62915;SDS011;49010;51.230;-2.306;2022-09-09T00:39:02;4.78;;;3.53;;
62915;SDS011;49010;51.230;-2.306;2022-09-09T00:42:44;7.72;;;3.03;;
62915;SDS011;49010;51.230;-2.306;2022-09-09T00:50:50;6.32;;;3.70;;
62915;SDS011;49010;51.230;-2.306;2022-09-09T01:03:14;6.38;;;4.15;;
62915;SDS011;49010;51.230;-2.306;2022-09-09T01:07:14;6.82;;;4.18;;
62915;SDS011;49010;51.230;-2.306;2022-09-09T01:10:59;8.27;;;4.57;;
62915;SDS011;49010;51.230;-2.306;2022-09-09T01:14:45;5.60;;;4.18;;
62915;SDS011;49010;51.230;-2.306;2022-09-09T01:18:32;8.90;;;4.10;;
62915;SDS011;49010;51.230;-2.306;2022-09-09T01:26:21;6.57;;;3.67;;
62915;SDS011;49010;51.230;-2.306;2022-09-09T01:30:14;6.72;;;3.60;;
62915;SDS011;49010;51.230;-2.306;2022-09-09T01:33:58;12.75;;;3.60;;
62915;SDS011;49010;51.230;-2.306;2022-09-09T01:37:40;4.57;;;3.22;;
62915;SDS011;49010;51.230;-2.306;2022-09-09T01:41:22;6.10;;;2.92;;
62915;SDS011;49010;51.230;-2.306;2022-09-09T01:45:04;4.32;;;2.60;;
62915;SDS011;49010;51.230;-2.306;2022-09-09T01:48:47;4.25;;;2.55;;
62915;SDS011;49010;51.230;-2.306;2022-09-09T01:52:31;4.82;;;2.60;;
62915;SDS011;49010;51.230;-2.306;2022-09-09T02:00:08;4.35;;;2.13;;
62915;SDS011;49010;51.230;-2.306;2022-09-09T02:03:52;6.70;;;2.85;;
62915;SDS011;49010;51.230;-2.306;2022-09-09T02:15:04;3.08;;;2.00;;
62915;SDS011;49010;51.230;-2.306;2022-09-09T02:18:55;2.92;;;2.00;;
62915;SDS011;49010;51.230;-2.306;2022-09-09T02:22:54;5.90;;;2.03;;
62915;SDS011;49010;51.230;-2.306;2022-09-09T02:26:39;4.80;;;1.98;;
62915;SDS011;49010;51.230;-2.306;2022-09-09T02:30:24;5.63;;;2.50;;
62915;SDS011;49010;51.230;-2.306;2022-09-09T02:34:06;6.53;;;2.95;;
62915;SDS011;49010;51.230;-2.306;2022-09-09T02:37:52;7.35;;;2.80;;
62915;SDS011;49010;51.230;-2.306;2022-09-09T02:41:39;5.07;;;2.75;;
62915;SDS011;49010;51.230;-2.306;2022-09-09T02:45:23;7.60;;;2.50;;
62915;SDS011;49010;51.230;-2.306;2022-09-09T02:49:10;8.65;;;2.83;;
62915;SDS011;49010;51.230;-2.306;2022-09-09T02:57:16;3.70;;;2.33;;
62915;SDS011;49010;51.230;-2.306;2022-09-09T03:01:02;6.20;;;2.17;;
62915;SDS011;49010;51.230;-2.306;2022-09-09T03:04:44;5.78;;;2.20;;
62915;SDS011;49010;51.230;-2.306;2022-09-09T03:08:31;4.47;;;2.13;;
62915;SDS011;49010;51.230;-2.306;2022-09-09T03:12:13;5.00;;;2.95;;
62915;SDS011;49010;51.230;-2.306;2022-09-09T03:15:55;8.02;;;3.58;;
62915;SDS011;49010;51.230;-2.306;2022-09-09T03:19:38;7.72;;;4.15;;
62915;SDS011;49010;51.230;-2.306;2022-09-09T03:23:23;5.90;;;3.80;;
62915;SDS011;49010;51.230;-2.306;2022-09-09T03:27:05;7.40;;;3.88;;
62915;SDS011;49010;51.230;-2.306;2022-09-09T03:30:47;7.90;;;3.88;;
62915;SDS011;49010;51.230;-2.306;2022-09-09T03:34:30;5.75;;;3.38;;
62915;SDS011;49010;51.230;-2.306;2022-09-09T03:38:12;7.40;;;4.05;;
62915;SDS011;49010;51.230;-2.306;2022-09-09T03:41:54;7.82;;;3.70;;
62915;SDS011;49010;51.230;-2.306;2022-09-09T03:45:36;10.30;;;4.60;;
62915;SDS011;49010;51.230;-2.306;2022-09-09T03:49:18;6.40;;;3.38;;
62915;SDS011;49010;51.230;-2.306;2022-09-09T03:53:01;5.72;;;2.92;;
62915;SDS011;49010;51.230;-2.306;2022-09-09T03:56:43;8.55;;;3.05;;
62915;SDS011;49010;51.230;-2.306;2022-09-09T04:00:25;7.72;;;2.85;;
62915;SDS011;49010;51.230;-2.306;2022-09-09T04:04:08;6.25;;;2.70;;
62915;SDS011;49010;51.230;-2.306;2022-09-09T04:07:50;4.72;;;2.20;;
62915;SDS011;49010;51.230;-2.306;2022-09-09T04:11:32;8.35;;;3.03;;
62915;SDS011;49010;51.230;-2.306;2022-09-09T04:15:15;4.60;;;2.85;;
62915;SDS011;49010;51.230;-2.306;2022-09-09T04:18:57;6.45;;;2.88;;
62915;SDS011;49010;51.230;-2.306;2022-09-09T04:22:39;6.35;;;3.17;;
62915;SDS011;49010;51.230;-2.306;2022-09-09T04:26:21;7.93;;;2.92;;
62915;SDS011;49010;51.230;-2.306;2022-09-09T04:30:04;3.03;;;2.60;;
62915;SDS011;49010;51.230;-2.306;2022-09-09T04:33:46;3.97;;;2.95;;
62915;SDS011;49010;51.230;-2.306;2022-09-09T04:37:28;5.90;;;2.70;;
62915;SDS011;49010;51.230;-2.306;2022-09-09T04:41:10;4.35;;;2.40;;
62915;SDS011;49010;51.230;-2.306;2022-09-09T04:44:52;5.90;;;2.72;;
62915;SDS011;49010;51.230;-2.306;2022-09-09T04:48:34;5.90;;;2.90;;
62915;SDS011;49010;51.230;-2.306;2022-09-09T04:52:16;4.95;;;2.25;;
62915;SDS011;49010;51.230;-2.306;2022-09-09T04:56:02;3.70;;;2.00;;
62915;SDS011;49010;51.230;-2.306;2022-09-09T04:59:46;4.55;;;1.92;;
62915;SDS011;49010;51.230;-2.306;2022-09-09T05:03:28;5.22;;;2.55;;
62915;SDS011;49010;51.230;-2.306;2022-09-09T05:07:10;2.60;;;1.73;;
62915;SDS011;49010;51.230;-2.306;2022-09-09T05:10:51;2.85;;;1.50;;
62915;SDS011;49010;51.230;-2.306;2022-09-09T05:14:33;3.13;;;1.48;;
62915;SDS011;49010;51.230;-2.306;2022-09-09T05:18:18;4.40;;;1.30;;
62915;SDS011;49010;51.230;-2.306;2022-09-09T05:22:00;3.42;;;1.30;;
62915;SDS011;49010;51.230;-2.306;2022-09-09T05:25:42;2.95;;;1.00;;
62915;SDS011;49010;51.230;-2.306;2022-09-09T05:29:24;1.52;;;0.82;;
62915;SDS011;49010;51.230;-2.306;2022-09-09T05:33:07;7.95;;;1.60;;
62915;SDS011;49010;51.230;-2.306;2022-09-09T05:36:50;4.57;;;1.50;;
62915;SDS011;49010;51.230;-2.306;2022-09-09T05:40:33;4.18;;;0.80;;
62915;SDS011;49010;51.230;-2.306;2022-09-09T05:44:15;2.78;;;1.23;;
62915;SDS011;49010;51.230;-2.306;2022-09-09T05:47:57;5.18;;;1.02;;
62915;SDS011;49010;51.230;-2.306;2022-09-09T05:51:41;5.65;;;1.17;;
62915;SDS011;49010;51.230;-2.306;2022-09-09T05:55:24;7.22;;;1.65;;
62915;SDS011;49010;51.230;-2.306;2022-09-09T05:59:07;3.92;;;1.15;;
62915;SDS011;49010;51.230;-2.306;2022-09-09T06:02:52;3.35;;;1.05;;
62915;SDS011;49010;51.230;-2.306;2022-09-09T06:06:35;2.42;;;0.85;;
62915;SDS011;49010;51.230;-2.306;2022-09-09T06:10:20;3.33;;;1.00;;
62915;SDS011;49010;51.230;-2.306;2022-09-09T06:14:02;2.40;;;0.88;;
62915;SDS011;49010;51.230;-2.306;2022-09-09T06:17:45;2.60;;;1.05;;
62915;SDS011;49010;51.230;-2.306;2022-09-09T06:21:28;4.72;;;1.15;;
62915;SDS011;49010;51.230;-2.306;2022-09-09T06:25:14;4.07;;;1.40;;
62915;SDS011;49010;51.230;-2.306;2022-09-09T06:28:56;4.18;;;1.50;;
62915;SDS011;49010;51.230;-2.306;2022-09-09T06:32:39;5.03;;;1.48;;
62915;SDS011;49010;51.230;-2.306;2022-09-09T06:36:31;3.95;;;1.50;;
62915;SDS011;49010;51.230;-2.306;2022-09-09T06:40:16;8.63;;;2.38;;
62915;SDS011;49010;51.230;-2.306;2022-09-09T06:43:59;4.35;;;2.05;;
62915;SDS011;49010;51.230;-2.306;2022-09-09T06:47:43;6.25;;;1.73;;
62915;SDS011;49010;51.230;-2.306;2022-09-09T06:51:27;3.22;;;1.67;;
62915;SDS011;49010;51.230;-2.306;2022-09-09T06:55:14;7.47;;;2.00;;
62915;SDS011;49010;51.230;-2.306;2022-09-09T06:58:58;6.03;;;1.60;;
62915;SDS011;49010;51.230;-2.306;2022-09-09T07:02:43;5.38;;;1.60;;
62915;SDS011;49010;51.230;-2.306;2022-09-09T07:06:27;4.05;;;1.95;;
62915;SDS011;49010;51.230;-2.306;2022-09-09T07:10:11;6.80;;;2.33;;
62915;SDS011;49010;51.230;-2.306;2022-09-09T07:13:53;8.32;;;1.88;;
62915;SDS011;49010;51.230;-2.306;2022-09-09T07:17:38;5.72;;;1.60;;
62915;SDS011;49010;51.230;-2.306;2022-09-09T07:21:22;2.42;;;1.33;;
62915;SDS011;49010;51.230;-2.306;2022-09-09T07:25:03;7.95;;;1.90;;
62915;SDS011;49010;51.230;-2.306;2022-09-09T07:28:46;4.05;;;1.30;;
62915;SDS011;49010;51.230;-2.306;2022-09-09T07:32:29;3.33;;;1.42;;
62915;SDS011;49010;51.230;-2.306;2022-09-09T07:36:15;6.30;;;1.52;;
62915;SDS011;49010;51.230;-2.306;2022-09-09T07:40:10;4.20;;;1.40;;
62915;SDS011;49010;51.230;-2.306;2022-09-09T07:43:52;3.58;;;1.23;;
62915;SDS011;49010;51.230;-2.306;2022-09-09T07:47:37;4.82;;;1.77;;
62915;SDS011;49010;51.230;-2.306;2022-09-09T07:51:20;3.10;;;1.52;;
62915;SDS011;49010;51.230;-2.306;2022-09-09T07:55:13;4.50;;;1.67;;
62915;SDS011;49010;51.230;-2.306;2022-09-09T07:58:55;3.35;;;1.45;;
62915;SDS011;49010;51.230;-2.306;2022-09-09T08:02:38;4.68;;;1.27;;
62915;SDS011;49010;51.230;-2.306;2022-09-09T08:06:20;2.95;;;0.80;;
62915;SDS011;49010;51.230;-2.306;2022-09-09T08:10:03;1.27;;;0.60;;
62915;SDS011;49010;51.230;-2.306;2022-09-09T08:13:45;1.70;;;0.88;;
62915;SDS011;49010;51.230;-2.306;2022-09-09T08:17:34;2.67;;;0.73;;
62915;SDS011;49010;51.230;-2.306;2022-09-09T08:21:16;2.38;;;0.88;;
62915;SDS011;49010;51.230;-2.306;2022-09-09T08:25:00;1.92;;;0.68;;
62915;SDS011;49010;51.230;-2.306;2022-09-09T08:28:43;3.08;;;0.57;;
62915;SDS011;49010;51.230;-2.306;2022-09-09T08:32:25;2.72;;;0.80;;
62915;SDS011;49010;51.230;-2.306;2022-09-09T08:36:09;1.73;;;0.70;;
62915;SDS011;49010;51.230;-2.306;2022-09-09T08:39:52;3.08;;;0.45;;
62915;SDS011;49010;51.230;-2.306;2022-09-09T08:43:35;3.45;;;0.40;;
62915;SDS011;49010;51.230;-2.306;2022-09-09T08:51:25;0.73;;;0.40;;
62915;SDS011;49010;51.230;-2.306;2022-09-09T08:59:19;0.65;;;0.20;;
62915;SDS011;49010;51.230;-2.306;2022-09-09T09:10:57;2.88;;;0.32;;
62915;SDS011;49010;51.230;-2.306;2022-09-09T09:14:41;2.53;;;0.43;;
62915;SDS011;49010;51.230;-2.306;2022-09-09T09:18:26;4.30;;;0.40;;
62915;SDS011;49010;51.230;-2.306;2022-09-09T09:22:21;1.77;;;0.30;;
62915;SDS011;49010;51.230;-2.306;2022-09-09T09:26:14;1.15;;;0.38;;
62915;SDS011;49010;51.230;-2.306;2022-09-09T09:29:56;1.27;;;0.40;;
62915;SDS011;49010;51.230;-2.306;2022-09-09T09:34:01;1.92;;;0.52;;
62915;SDS011;49010;51.230;-2.306;2022-09-09T09:37:43;1.65;;;0.45;;
62915;SDS011;49010;51.230;-2.306;2022-09-09T09:41:46;1.20;;;0.30;;
62915;SDS011;49010;51.230;-2.306;2022-09-09T09:49:15;1.70;;;0.30;;
62915;SDS011;49010;51.230;-2.306;2022-09-09T09:52:59;1.70;;;0.50;;
62915;SDS011;49010;51.230;-2.306;2022-09-09T09:56:45;2.00;;;0.38;;
62915;SDS011;49010;51.230;-2.306;2022-09-09T10:00:28;3.05;;;0.50;;
62915;SDS011;49010;51.230;-2.306;2022-09-09T10:08:02;0.90;;;0.50;;
62915;SDS011;49010;51.230;-2.306;2022-09-09T10:19:54;0.98;;;0.30;;
62915;SDS011;49010;51.230;-2.306;2022-09-09T10:23:59;1.05;;;0.30;;
62915;SDS011;49010;51.230;-2.306;2022-09-09T10:32:00;1.42;;;0.20;;
62915;SDS011;49010;51.230;-2.306;2022-09-09T10:36:16;1.55;;;0.28;;
62915;SDS011;49010;51.230;-2.306;2022-09-09T10:40:14;2.53;;;0.30;;
62915;SDS011;49010;51.230;-2.306;2022-09-09T10:44:20;1.25;;;0.35;;
62915;SDS011;49010;51.230;-2.306;2022-09-09T10:48:20;1.73;;;0.55;;
62915;SDS011;49010;51.230;-2.306;2022-09-09T10:52:17;2.30;;;0.60;;
62915;SDS011;49010;51.230;-2.306;2022-09-09T10:56:04;1.95;;;0.60;;
62915;SDS011;49010;51.230;-2.306;2022-09-09T10:59:58;0.40;;;0.30;;
62915;SDS011;49010;51.230;-2.306;2022-09-09T11:03:47;0.73;;;0.35;;
62915;SDS011;49010;51.230;-2.306;2022-09-09T11:07:40;0.73;;;0.20;;
62915;SDS011;49010;51.230;-2.306;2022-09-09T11:15:42;1.23;;;0.30;;
62915;SDS011;49010;51.230;-2.306;2022-09-09T11:19:34;0.40;;;0.22;;
62915;SDS011;49010;51.230;-2.306;2022-09-09T11:23:36;0.82;;;0.38;;
62915;SDS011;49010;51.230;-2.306;2022-09-09T11:44:11;1.52;;;0.55;;
62915;SDS011;49010;51.230;-2.306;2022-09-09T11:47:59;1.25;;;0.50;;
62915;SDS011;49010;51.230;-2.306;2022-09-09T11:51:41;0.98;;;0.40;;
62915;SDS011;49010;51.230;-2.306;2022-09-09T11:55:30;2.80;;;0.60;;
62915;SDS011;49010;51.230;-2.306;2022-09-09T12:03:03;1.98;;;0.90;;
62915;SDS011;49010;51.230;-2.306;2022-09-09T12:06:49;2.20;;;0.85;;
62915;SDS011;49010;51.230;-2.306;2022-09-09T12:10:38;1.40;;;0.70;;
62915;SDS011;49010;51.230;-2.306;2022-09-09T12:14:22;4.80;;;1.00;;
62915;SDS011;49010;51.230;-2.306;2022-09-09T12:30:10;3.63;;;0.90;;
62915;SDS011;49010;51.230;-2.306;2022-09-09T12:34:02;2.97;;;0.98;;
62915;SDS011;49010;51.230;-2.306;2022-09-09T12:38:02;2.17;;;0.70;;
62915;SDS011;49010;51.230;-2.306;2022-09-09T12:41:51;1.75;;;0.50;;
62915;SDS011;49010;51.230;-2.306;2022-09-09T12:45:37;6.40;;;0.85;;
62915;SDS011;49010;51.230;-2.306;2022-09-09T12:53:24;2.63;;;0.75;;
62915;SDS011;49010;51.230;-2.306;2022-09-09T12:57:09;2.03;;;0.60;;
62915;SDS011;49010;51.230;-2.306;2022-09-09T13:04:37;3.35;;;0.75;;
62915;SDS011;49010;51.230;-2.306;2022-09-09T13:08:19;1.73;;;0.70;;
62915;SDS011;49010;51.230;-2.306;2022-09-09T13:12:01;1.42;;;0.60;;
62915;SDS011;49010;51.230;-2.306;2022-09-09T13:15:49;1.63;;;0.60;;
62915;SDS011;49010;51.230;-2.306;2022-09-09T13:19:37;2.75;;;0.60;;
62915;SDS011;49010;51.230;-2.306;2022-09-09T13:23:21;2.75;;;0.80;;
62915;SDS011;49010;51.230;-2.306;2022-09-09T13:27:18;3.95;;;1.58;;
62915;SDS011;49010;51.230;-2.306;2022-09-09T13:35:01;3.45;;;1.33;;
62915;SDS011;49010;51.230;-2.306;2022-09-09T13:38:53;7.20;;;2.35;;
62915;SDS011;49010;51.230;-2.306;2022-09-09T13:42:38;4.68;;;1.73;;
62915;SDS011;49010;51.230;-2.306;2022-09-09T13:46:33;3.58;;;1.05;;
62915;SDS011;49010;51.230;-2.306;2022-09-09T13:50:23;3.65;;;0.90;;
62915;SDS011;49010;51.230;-2.306;2022-09-09T13:54:11;3.50;;;1.20;;
62915;SDS011;49010;51.230;-2.306;2022-09-09T13:57:56;2.85;;;0.80;;
62915;SDS011;49010;51.230;-2.306;2022-09-09T14:01:40;5.03;;;1.45;;
62915;SDS011;49010;51.230;-2.306;2022-09-09T14:05:22;2.90;;;1.05;;
62915;SDS011;49010;51.230;-2.306;2022-09-09T14:09:05;5.32;;;1.40;;
62915;SDS011;49010;51.230;-2.306;2022-09-09T14:12:48;3.42;;;1.40;;
62915;SDS011;49010;51.230;-2.306;2022-09-09T14:16:30;4.43;;;1.40;;
62915;SDS011;49010;51.230;-2.306;2022-09-09T14:20:12;4.90;;;1.00;;
62915;SDS011;49010;51.230;-2.306;2022-09-09T14:23:56;4.80;;;1.25;;
62915;SDS011;49010;51.230;-2.306;2022-09-09T14:27:39;4.10;;;1.25;;
62915;SDS011;49010;51.230;-2.306;2022-09-09T14:31:21;5.88;;;1.77;;
62915;SDS011;49010;51.230;-2.306;2022-09-09T14:35:04;5.05;;;1.08;;
62915;SDS011;49010;51.230;-2.306;2022-09-09T14:38:46;5.18;;;1.33;;
62915;SDS011;49010;51.230;-2.306;2022-09-09T14:42:29;5.03;;;0.80;;
62915;SDS011;49010;51.230;-2.306;2022-09-09T14:46:12;4.38;;;0.85;;
62915;SDS011;49010;51.230;-2.306;2022-09-09T14:49:55;4.45;;;0.95;;
62915;SDS011;49010;51.230;-2.306;2022-09-09T14:53:37;3.17;;;0.63;;
62915;SDS011;49010;51.230;-2.306;2022-09-09T14:57:20;3.72;;;0.73;;
62915;SDS011;49010;51.230;-2.306;2022-09-09T15:01:05;3.60;;;0.70;;
62915;SDS011;49010;51.230;-2.306;2022-09-09T15:04:48;1.35;;;0.50;;
62915;SDS011;49010;51.230;-2.306;2022-09-09T15:08:31;2.72;;;0.60;;
62915;SDS011;49010;51.230;-2.306;2022-09-09T15:12:13;3.05;;;0.75;;
62915;SDS011;49010;51.230;-2.306;2022-09-09T15:15:55;3.85;;;0.77;;
62915;SDS011;49010;51.230;-2.306;2022-09-09T15:19:39;5.65;;;0.80;;
62915;SDS011;49010;51.230;-2.306;2022-09-09T15:23:20;4.82;;;0.90;;
62915;SDS011;49010;51.230;-2.306;2022-09-09T15:27:02;2.45;;;0.60;;
62915;SDS011;49010;51.230;-2.306;2022-09-09T15:30:49;2.30;;;1.08;;
62915;SDS011;49010;51.230;-2.306;2022-09-09T15:34:32;2.33;;;0.60;;
62915;SDS011;49010;51.230;-2.306;2022-09-09T15:38:14;1.55;;;0.85;;
62915;SDS011;49010;51.230;-2.306;2022-09-09T15:41:57;5.38;;;1.08;;
62915;SDS011;49010;51.230;-2.306;2022-09-09T15:45:39;2.50;;;1.02;;
62915;SDS011;49010;51.230;-2.306;2022-09-09T15:49:24;6.05;;;1.50;;
62915;SDS011;49010;51.230;-2.306;2022-09-09T15:53:07;3.50;;;1.23;;
62915;SDS011;49010;51.230;-2.306;2022-09-09T15:56:56;5.93;;;1.20;;
62915;SDS011;49010;51.230;-2.306;2022-09-09T16:00:39;5.18;;;1.30;;
62915;SDS011;49010;51.230;-2.306;2022-09-09T16:04:22;5.97;;;1.17;;
62915;SDS011;49010;51.230;-2.306;2022-09-09T16:08:05;6.07;;;1.05;;
62915;SDS011;49010;51.230;-2.306;2022-09-09T16:11:47;5.03;;;1.38;;
62915;SDS011;49010;51.230;-2.306;2022-09-09T16:15:29;7.15;;;1.83;;
62915;SDS011;49010;51.230;-2.306;2022-09-09T16:19:12;7.25;;;1.38;;
62915;SDS011;49010;51.230;-2.306;2022-09-09T16:22:54;6.28;;;1.90;;
62915;SDS011;49010;51.230;-2.306;2022-09-09T16:26:39;4.35;;;1.40;;
62915;SDS011;49010;51.230;-2.306;2022-09-09T16:30:26;4.50;;;1.42;;
62915;SDS011;49010;51.230;-2.306;2022-09-09T16:34:08;3.90;;;1.50;;
62915;SDS011;49010;51.230;-2.306;2022-09-09T16:37:50;5.38;;;1.85;;
62915;SDS011;49010;51.230;-2.306;2022-09-09T16:41:32;4.50;;;1.23;;
62915;SDS011;49010;51.230;-2.306;2022-09-09T16:45:14;6.28;;;1.30;;
62915;SDS011;49010;51.230;-2.306;2022-09-09T16:48:57;6.45;;;1.30;;
62915;SDS011;49010;51.230;-2.306;2022-09-09T16:52:41;4.72;;;1.17;;
62915;SDS011;49010;51.230;-2.306;2022-09-09T16:56:23;5.78;;;1.23;;
62915;SDS011;49010;51.230;-2.306;2022-09-09T17:00:07;5.97;;;1.50;;
62915;SDS011;49010;51.230;-2.306;2022-09-09T17:03:58;9.57;;;1.92;;
62915;SDS011;49010;51.230;-2.306;2022-09-09T17:07:44;5.30;;;1.48;;
62915;SDS011;49010;51.230;-2.306;2022-09-09T17:11:26;6.28;;;1.52;;
62915;SDS011;49010;51.230;-2.306;2022-09-09T17:15:09;4.25;;;1.40;;
62915;SDS011;49010;51.230;-2.306;2022-09-09T17:18:51;5.25;;;1.50;;
62915;SDS011;49010;51.230;-2.306;2022-09-09T17:22:33;4.90;;;1.05;;
62915;SDS011;49010;51.230;-2.306;2022-09-09T17:26:16;9.60;;;1.55;;
62915;SDS011;49010;51.230;-2.306;2022-09-09T17:30:00;5.50;;;1.40;;
62915;SDS011;49010;51.230;-2.306;2022-09-09T17:33:45;6.60;;;1.73;;
62915;SDS011;49010;51.230;-2.306;2022-09-09T17:37:29;6.32;;;1.52;;
62915;SDS011;49010;51.230;-2.306;2022-09-09T17:41:21;7.82;;;1.38;;
62915;SDS011;49010;51.230;-2.306;2022-09-09T17:45:08;6.35;;;1.40;;
62915;SDS011;49010;51.230;-2.306;2022-09-09T17:48:52;6.80;;;1.17;;
62915;SDS011;49010;51.230;-2.306;2022-09-09T17:52:38;7.18;;;1.23;;
62915;SDS011;49010;51.230;-2.306;2022-09-09T17:56:22;7.32;;;1.77;;
62915;SDS011;49010;51.230;-2.306;2022-09-09T18:00:05;4.53;;;1.33;;
62915;SDS011;49010;51.230;-2.306;2022-09-09T18:03:48;5.45;;;1.50;;
62915;SDS011;49010;51.230;-2.306;2022-09-09T18:07:30;5.32;;;2.15;;
62915;SDS011;49010;51.230;-2.306;2022-09-09T18:11:12;5.47;;;1.50;;
62915;SDS011;49010;51.230;-2.306;2022-09-09T18:14:54;8.77;;;1.95;;
62915;SDS011;49010;51.230;-2.306;2022-09-09T18:18:38;5.68;;;1.42;;
62915;SDS011;49010;51.230;-2.306;2022-09-09T18:22:20;6.95;;;1.45;;
62915;SDS011;49010;51.230;-2.306;2022-09-09T18:26:11;5.30;;;1.27;;
62915;SDS011;49010;51.230;-2.306;2022-09-09T18:29:54;7.05;;;1.42;;
62915;SDS011;49010;51.230;-2.306;2022-09-09T18:33:37;4.85;;;1.45;;
62915;SDS011;49010;51.230;-2.306;2022-09-09T18:37:21;6.32;;;2.17;;
62915;SDS011;49010;51.230;-2.306;2022-09-09T18:44:56;4.78;;;1.70;;
62915;SDS011;49010;51.230;-2.306;2022-09-09T18:48:38;5.40;;;1.85;;
62915;SDS011;49010;51.230;-2.306;2022-09-09T18:52:20;6.00;;;1.65;;
62915;SDS011;49010;51.230;-2.306;2022-09-09T18:56:05;6.28;;;1.80;;
62915;SDS011;49010;51.230;-2.306;2022-09-09T18:59:52;4.93;;;1.75;;
62915;SDS011;49010;51.230;-2.306;2022-09-09T19:03:35;4.18;;;1.70;;
62915;SDS011;49010;51.230;-2.306;2022-09-09T19:07:17;10.65;;;2.28;;
62915;SDS011;49010;51.230;-2.306;2022-09-09T19:11:00;7.40;;;1.58;;
62915;SDS011;49010;51.230;-2.306;2022-09-09T19:14:43;6.50;;;1.48;;
62915;SDS011;49010;51.230;-2.306;2022-09-09T19:18:25;3.95;;;1.40;;
62915;SDS011;49010;51.230;-2.306;2022-09-09T19:22:07;5.35;;;1.75;;
62915;SDS011;49010;51.230;-2.306;2022-09-09T19:25:51;8.43;;;1.55;;
62915;SDS011;49010;51.230;-2.306;2022-09-09T19:29:34;8.98;;;2.03;;
62915;SDS011;49010;51.230;-2.306;2022-09-09T19:33:17;8.80;;;2.40;;
62915;SDS011;49010;51.230;-2.306;2022-09-09T19:37:00;6.47;;;3.15;;
62915;SDS011;49010;51.230;-2.306;2022-09-09T19:40:42;10.73;;;5.55;;
62915;SDS011;49010;51.230;-2.306;2022-09-09T19:44:24;5.32;;;2.97;;
62915;SDS011;49010;51.230;-2.306;2022-09-09T19:48:05;13.80;;;4.13;;
62915;SDS011;49010;51.230;-2.306;2022-09-09T19:51:47;9.23;;;3.72;;
62915;SDS011;49010;51.230;-2.306;2022-09-09T19:55:29;10.65;;;4.40;;
62915;SDS011;49010;51.230;-2.306;2022-09-09T19:59:12;4.32;;;1.55;;
62915;SDS011;49010;51.230;-2.306;2022-09-09T20:02:55;4.75;;;1.55;;
62915;SDS011;49010;51.230;-2.306;2022-09-09T20:06:59;3.05;;;1.33;;
62915;SDS011;49010;51.230;-2.306;2022-09-09T20:10:48;4.47;;;1.70;;
62915;SDS011;49010;51.230;-2.306;2022-09-09T20:14:32;3.47;;;1.05;;
62915;SDS011;49010;51.230;-2.306;2022-09-09T20:18:19;3.33;;;1.20;;
62915;SDS011;49010;51.230;-2.306;2022-09-09T20:22:01;6.10;;;1.27;;
62915;SDS011;49010;51.230;-2.306;2022-09-09T20:25:43;2.63;;;1.15;;
62915;SDS011;49010;51.230;-2.306;2022-09-09T20:29:25;5.55;;;1.42;;
62915;SDS011;49010;51.230;-2.306;2022-09-09T20:33:07;2.75;;;1.42;;
62915;SDS011;49010;51.230;-2.306;2022-09-09T20:36:49;3.45;;;1.30;;
62915;SDS011;49010;51.230;-2.306;2022-09-09T20:40:33;2.85;;;1.00;;
62915;SDS011;49010;51.230;-2.306;2022-09-09T20:44:18;3.25;;;1.38;;
62915;SDS011;49010;51.230;-2.306;2022-09-09T20:48:04;5.03;;;1.52;;
62915;SDS011;49010;51.230;-2.306;2022-09-09T20:51:47;4.45;;;1.55;;
62915;SDS011;49010;51.230;-2.306;2022-09-09T20:55:30;3.00;;;1.50;;
62915;SDS011;49010;51.230;-2.306;2022-09-09T20:59:15;3.05;;;1.60;;
62915;SDS011;49010;51.230;-2.306;2022-09-09T21:03:00;2.13;;;1.40;;
62915;SDS011;49010;51.230;-2.306;2022-09-09T21:06:42;3.83;;;1.60;;
62915;SDS011;49010;51.230;-2.306;2022-09-09T21:10:24;4.78;;;1.95;;
62915;SDS011;49010;51.230;-2.306;2022-09-09T21:14:06;4.28;;;1.90;;
62915;SDS011;49010;51.230;-2.306;2022-09-09T21:17:49;3.08;;;2.10;;
62915;SDS011;49010;51.230;-2.306;2022-09-09T21:21:49;4.05;;;2.05;;
62915;SDS011;49010;51.230;-2.306;2022-09-09T21:25:31;3.92;;;2.15;;
62915;SDS011;49010;51.230;-2.306;2022-09-09T21:29:39;5.78;;;2.53;;
62915;SDS011;49010;51.230;-2.306;2022-09-09T21:33:46;5.28;;;2.28;;
62915;SDS011;49010;51.230;-2.306;2022-09-09T21:37:42;5.82;;;2.15;;
62915;SDS011;49010;51.230;-2.306;2022-09-09T21:41:24;4.03;;;2.42;;
62915;SDS011;49010;51.230;-2.306;2022-09-09T21:45:06;7.53;;;2.88;;
62915;SDS011;49010;51.230;-2.306;2022-09-09T21:48:48;6.00;;;3.13;;
62915;SDS011;49010;51.230;-2.306;2022-09-09T21:52:31;5.50;;;3.60;;
62915;SDS011;49010;51.230;-2.306;2022-09-09T21:56:13;4.50;;;3.00;;
62915;SDS011;49010;51.230;-2.306;2022-09-09T21:59:57;4.60;;;2.67;;
62915;SDS011;49010;51.230;-2.306;2022-09-09T22:03:39;5.18;;;2.90;;
62915;SDS011;49010;51.230;-2.306;2022-09-09T22:07:22;6.28;;;3.75;;
62915;SDS011;49010;51.230;-2.306;2022-09-09T22:11:09;7.78;;;3.50;;
62915;SDS011;49010;51.230;-2.306;2022-09-09T22:14:55;6.43;;;3.15;;
62915;SDS011;49010;51.230;-2.306;2022-09-09T22:18:37;5.40;;;3.42;;
62915;SDS011;49010;51.230;-2.306;2022-09-09T22:22:19;5.75;;;3.40;;
62915;SDS011;49010;51.230;-2.306;2022-09-09T22:26:02;5.70;;;3.83;;
62915;SDS011;49010;51.230;-2.306;2022-09-09T22:29:45;6.18;;;3.92;;
62915;SDS011;49010;51.230;-2.306;2022-09-09T22:33:27;6.18;;;3.13;;
62915;SDS011;49010;51.230;-2.306;2022-09-09T22:37:09;7.03;;;3.92;;
62915;SDS011;49010;51.230;-2.306;2022-09-09T22:40:51;6.55;;;3.78;;
62915;SDS011;49010;51.230;-2.306;2022-09-09T22:44:33;8.15;;;4.57;;
62915;SDS011;49010;51.230;-2.306;2022-09-09T22:48:15;11.10;;;5.18;;
62915;SDS011;49010;51.230;-2.306;2022-09-09T22:51:57;9.48;;;4.50;;
62915;SDS011;49010;51.230;-2.306;2022-09-09T22:55:39;8.38;;;5.13;;
62915;SDS011;49010;51.230;-2.306;2022-09-09T22:59:21;6.60;;;4.35;;
62915;SDS011;49010;51.230;-2.306;2022-09-09T23:03:03;5.90;;;4.90;;
62915;SDS011;49010;51.230;-2.306;2022-09-09T23:06:46;6.55;;;4.80;;
62915;SDS011;49010;51.230;-2.306;2022-09-09T23:10:28;14.23;;;5.35;;
62915;SDS011;49010;51.230;-2.306;2022-09-09T23:14:12;6.68;;;4.53;;
62915;SDS011;49010;51.230;-2.306;2022-09-09T23:17:54;7.55;;;5.57;;
62915;SDS011;49010;51.230;-2.306;2022-09-09T23:21:36;7.90;;;5.78;;
62915;SDS011;49010;51.230;-2.306;2022-09-09T23:25:19;8.75;;;5.78;;
62915;SDS011;49010;51.230;-2.306;2022-09-09T23:29:01;11.02;;;6.20;;
62915;SDS011;49010;51.230;-2.306;2022-09-09T23:32:43;10.27;;;5.45;;
62915;SDS011;49010;51.230;-2.306;2022-09-09T23:36:27;6.57;;;5.32;;
62915;SDS011;49010;51.230;-2.306;2022-09-09T23:40:10;11.00;;;5.85;;
62915;SDS011;49010;51.230;-2.306;2022-09-09T23:43:52;9.00;;;6.13;;
62915;SDS011;49010;51.230;-2.306;2022-09-09T23:47:34;11.38;;;5.50;;
62915;SDS011;49010;51.230;-2.306;2022-09-09T23:51:16;8.57;;;5.50;;
62915;SDS011;49010;51.230;-2.306;2022-09-09T23:55:00;8.63;;;5.50;;
62915;SDS011;49010;51.230;-2.306;2022-09-09T23:58:42;10.40;;;5.50;;
